Time;durP1;ratioP1;P1;durP2;ratioP2;P2;SDS_P1;SDS_P2;PMS_P1;PMS_P2;Temp;Humidity;BMP_temperature;BMP_pressure;BME280_temperature;BME280_humidity;BME280_pressure;Samples;Min_cycle;Max_cycle;Signal;HPM_P1;HPM_P2
2022/09/21 06:19:35;;;;;;;3.13;1.70;;;;;;;18.08;43.85;99018.69;5953452;24;20213;-92
2022/09/21 06:26:01;;;;;;;;;;;;;;;;;;;;;
2022/09/21 06:40:06;;;;;;;10.07;5.20;;;;;;;18.71;43.60;99044.19;5899870;24;20203;-95
2022/09/21 06:46:11;;;;;;;2.93;2.03;;;;;;;18.74;43.63;99043.88;5981872;24;20189;-93
2022/09/21 06:49:14;;;;;;;2.90;1.20;;;;;;;18.89;43.27;99039.91;5925766;24;20508;-93
2022/09/21 06:52:32;;;;;;;4.70;1.00;;;;;;;18.83;43.45;99028.00;5982307;24;20580;-92
2022/09/21 06:54:58;;;;;;;1.57;0.80;;;;;;;18.79;43.57;99037.19;5954695;24;20160;-92
2022/09/21 06:57:26;;;;;;;1.20;0.70;;;;;;;18.92;43.33;99037.81;5954234;24;20604;-94
2022/09/21 07:07:42;;;;;;;14.17;5.57;;;;;;;18.77;42.76;99039.16;5930166;24;20174;-94
2022/09/21 07:10:49;;;;;;;;;;;;;;;;;;;;;
2022/09/21 07:14:28;;;;;;;11.43;4.33;;;;;;;18.59;42.92;99045.22;5954929;24;20158;-91
2022/09/21 07:16:56;;;;;;;6.10;3.03;;;;;;;18.52;43.28;99047.59;5841241;24;20253;-91
2022/09/21 07:26:49;;;;;;;5.93;2.30;;;;;;;18.94;42.45;99038.53;5912268;24;20240;-94
2022/09/21 07:29:20;;;;;;;1.20;0.70;;;;;;;18.83;42.05;99041.28;5954576;24;20257;-90
2022/09/21 08:06:38;;;;;;;0.80;0.40;;;;;;;20.39;38.40;99031.44;5714491;25;20202;-94
2022/09/21 08:09:53;;;;;;;;;;;;;;;;;;;;;
2022/09/21 08:20:38;;;;;;;;;;;;;;;;;;;;;
2022/09/21 11:53:42;;;;;;;;;;;;;;;;;;;;;
2022/09/21 12:08:09;;;;;;;1.90;0.53;;;;;;;26.82;23.94;98840.91;6091178;23;20463;-94
2022/09/21 12:15:20;;;;;;;0.17;0.10;;;;;;;26.98;23.95;98834.44;6038122;23;20582;-92
2022/09/21 12:18:26;;;;;;;0.67;0.20;;;;;;;27.19;24.31;98832.59;6038587;23;20156;-92
2022/09/21 12:25:01;;;;;;;0.45;0.20;;;;;;;27.01;23.11;98829.53;6038506;23;20196;-91
2022/09/21 13:12:52;;;;;;;1.20;0.20;;;;;;;25.37;28.43;98827.28;6156327;23;20145;-94
2022/09/21 13:59:10;;;;;;;0.37;0.20;;;;;;;23.38;37.54;98896.63;6158453;23;20218;-92
2022/09/21 14:02:26;;;;;;;0.50;0.20;;;;;;;22.87;39.89;98884.34;6130926;23;20167;-94
2022/09/21 14:04:57;;;;;;;0.67;0.20;;;;;;;22.52;41.27;98874.69;6130379;23;20175;-91
2022/09/21 14:18:20;;;;;;;;;;;;;;;;;;;;;
2022/09/21 15:02:52;;;;;;;;;;;;;;;;;;;;;
2022/09/21 15:05:45;;;;;;;;;;;;;;;;;;;;;
2022/09/21 15:11:29;;;;;;;1.90;0.80;;;;;;;21.38;44.78;98948.88;6039036;23;20173;-93
2022/09/21 15:14:24;;;;;;;2.70;0.80;;;;;;;20.97;45.33;98974.25;6157377;23;20458;-92
2022/09/21 15:16:50;;;;;;;0.40;0.27;;;;;;;19.50;47.91;99008.69;6131293;23;20158;-89
2022/09/21 15:19:21;;;;;;;1.93;0.70;;;;;;;18.81;52.26;99006.06;6130920;23;20611;-91
2022/09/21 15:21:50;;;;;;;2.50;0.50;;;;;;;18.46;55.86;99007.41;6131385;23;20169;-85
2022/09/21 15:24:23;;;;;;;1.80;0.53;;;;;;;18.32;55.62;99011.25;6157280;23;20154;-85
2022/09/21 15:26:51;;;;;;;1.30;0.67;;;;;;;18.36;56.60;98992.31;6157563;23;20218;-86
2022/09/21 15:29:24;;;;;;;1.43;0.47;;;;;;;18.25;58.91;98994.19;6157185;23;20222;-87
2022/09/21 15:31:50;;;;;;;2.73;1.00;;;;;;;18.29;58.13;98991.13;6156966;23;20578;-87
2022/09/21 15:34:16;;;;;;;1.23;0.50;;;;;;;18.39;59.41;98993.84;6156676;23;20147;-87
2022/09/21 15:36:42;;;;;;;3.00;0.90;;;;;;;18.27;59.62;98982.47;6156763;23;20506;-87
2022/09/21 15:39:24;;;;;;;1.93;0.70;;;;;;;18.33;59.44;98976.66;6156655;23;20265;-87
2022/09/21 15:42:09;;;;;;;1.17;0.63;;;;;;;18.10;58.91;98966.34;6156434;23;20155;-86
2022/09/21 15:44:37;;;;;;;0.60;0.40;;;;;;;18.27;59.68;98971.00;6156578;23;20135;-87
2022/09/21 15:47:07;;;;;;;3.00;0.80;;;;;;;18.53;58.68;98964.31;6156648;23;20151;-87
2022/09/21 15:49:34;;;;;;;3.87;0.60;;;;;;;18.61;58.47;98969.78;6156850;23;20131;-87
2022/09/21 15:52:00;;;;;;;0.60;0.43;;;;;;;18.59;59.24;98963.78;6156733;23;20430;-87
2022/09/21 15:54:31;;;;;;;1.13;0.63;;;;;;;18.58;60.18;98963.94;6156597;23;20213;-87
2022/09/21 15:56:59;;;;;;;0.60;0.40;;;;;;;18.67;60.19;98973.72;6156391;23;20475;-87
2022/09/21 15:59:25;;;;;;;2.83;0.93;;;;;;;18.82;60.05;98967.88;6156400;23;20178;-87
2022/09/21 16:01:58;;;;;;;1.73;0.80;;;;;;;18.83;59.91;98971.38;6156414;23;20182;-87
2022/09/21 16:04:26;;;;;;;0.77;0.43;;;;;;;18.83;59.50;98963.44;6156247;23;20167;-87
2022/09/21 16:07:03;;;;;;;1.67;0.50;;;;;;;18.78;58.23;98977.13;6156415;23;20147;-87
2022/09/21 16:09:43;;;;;;;2.07;0.70;;;;;;;18.67;59.48;98969.25;6156780;23;20223;-87
2022/09/21 16:12:36;;;;;;;1.63;0.63;;;;;;;18.74;60.06;98978.34;6156738;23;20586;-86
2022/09/21 16:15:30;;;;;;;1.03;0.50;;;;;;;18.71;60.27;98973.31;6130596;23;20151;-86
2022/09/21 16:18:05;;;;;;;0.77;0.60;;;;;;;18.66;61.21;98975.53;6130699;23;20148;-87
2022/09/21 16:20:43;;;;;;;1.60;0.57;;;;;;;18.62;61.23;98973.28;6156516;23;20194;-86
2022/09/21 16:23:22;;;;;;;1.07;0.50;;;;;;;18.57;61.24;98971.03;6156715;23;20214;-86
2022/09/21 16:26:01;;;;;;;0.90;0.50;;;;;;;18.63;61.78;98967.81;6156565;23;20556;-86
2022/09/21 16:28:34;;;;;;;1.47;0.67;;;;;;;18.67;61.78;98969.25;6156846;23;20139;-87
2022/09/21 16:31:09;;;;;;;1.37;0.53;;;;;;;18.63;62.15;98967.81;6156996;23;20253;-86
2022/09/21 16:33:42;;;;;;;1.30;0.60;;;;;;;18.60;62.85;98969.94;6156261;23;20139;-86
2022/09/21 16:36:24;;;;;;;1.10;0.60;;;;;;;18.68;62.06;98975.41;6156142;23;20146;-86
2022/09/21 16:38:50;;;;;;;0.90;0.50;;;;;;;18.72;61.20;98982.97;6131265;23;20202;-86
2022/09/21 16:41:15;;;;;;;2.93;0.70;;;;;;;18.74;60.43;98988.13;6156116;23;20583;-86
2022/09/21 16:43:42;;;;;;;1.40;0.50;;;;;;;18.70;60.97;98987.56;6130372;23;20178;-86
2022/09/21 16:46:12;;;;;;;2.47;1.10;;;;;;;18.70;60.64;98987.56;6156029;23;20576;-86
2022/09/21 16:48:38;;;;;;;1.83;0.90;;;;;;;18.62;60.27;99000.69;6156333;23;20230;-87
2022/09/21 16:51:13;;;;;;;1.93;1.07;;;;;;;18.55;61.38;99011.97;6156397;23;20472;-86
2022/09/21 16:53:38;;;;;;;5.13;1.10;;;;;;;18.39;63.21;99028.34;6155999;23;20150;-86
2022/09/21 16:56:05;;;;;;;2.37;1.07;;;;;;;17.89;64.71;99023.84;6155659;23;20591;-85
2022/09/21 16:58:31;;;;;;;1.23;0.60;;;;;;;17.59;64.08;99030.75;6155924;23;20158;-86
2022/09/21 17:00:57;;;;;;;1.40;0.50;;;;;;;17.59;64.17;99020.13;6156026;23;20254;-86
2022/09/21 17:03:23;;;;;;;1.17;0.57;;;;;;;17.75;64.54;99033.81;6156148;23;20222;-87
2022/09/21 17:05:48;;;;;;;1.50;0.50;;;;;;;17.80;65.04;99042.22;6130154;23;20201;-87
2022/09/21 17:08:15;;;;;;;1.13;0.63;;;;;;;17.78;65.13;99049.47;6155780;23;20577;-86
2022/09/21 17:10:43;;;;;;;0.97;0.50;;;;;;;17.95;64.60;99053.34;6156207;23;20586;-86
2022/09/21 17:13:10;;;;;;;0.90;0.50;;;;;;;17.94;64.33;99064.09;6155824;23;20221;-87
2022/09/21 17:15:40;;;;;;;1.27;0.53;;;;;;;17.90;64.11;99063.50;6155767;23;20158;-87
2022/09/21 17:18:06;;;;;;;1.10;0.60;;;;;;;17.83;64.96;99059.69;6155813;23;20148;-87
2022/09/21 17:20:37;;;;;;;1.60;0.50;;;;;;;17.78;64.80;99065.38;6156070;23;20193;-87
2022/09/21 17:23:03;;;;;;;0.93;0.37;;;;;;;17.78;65.25;99064.53;6155798;23;20151;-87
2022/09/21 17:25:31;;;;;;;1.30;0.50;;;;;;;17.93;64.61;99067.69;6155642;23;20595;-87
2022/09/21 17:27:57;;;;;;;0.83;0.40;;;;;;;17.98;63.70;99066.34;6156115;23;20159;-87
2022/09/21 17:30:24;;;;;;;0.40;0.20;;;;;;;17.98;63.57;99076.09;6155945;23;20143;-87
2022/09/21 17:32:50;;;;;;;1.37;0.50;;;;;;;18.02;63.21;99078.41;6155777;23;20281;-88
2022/09/21 17:35:18;;;;;;;1.17;0.53;;;;;;;17.98;62.21;99076.94;6155674;23;20583;-87
2022/09/21 17:37:44;;;;;;;1.57;0.43;;;;;;;17.80;62.63;99071.38;6156326;23;20576;-87
2022/09/21 17:40:10;;;;;;;2.53;1.13;;;;;;;17.86;61.86;99072.69;6155652;23;20265;-87
2022/09/21 17:42:40;;;;;;;0.60;0.40;;;;;;;17.88;61.64;99075.19;6155732;23;20506;-87
2022/09/21 17:45:37;;;;;;;1.27;0.60;;;;;;;17.87;61.11;99077.03;6155718;23;20671;-87
2022/09/21 17:48:04;;;;;;;1.03;0.53;;;;;;;17.71;62.12;99084.56;6153808;23;20142;-87
2022/09/21 17:50:30;;;;;;;1.00;0.67;;;;;;;17.77;61.36;99078.72;6155227;23;20186;-87
2022/09/21 17:55:51;;;;;;;0.90;0.60;;;;;;;17.65;63.15;99075.31;6154519;23;20185;-86
2022/09/21 17:58:23;;;;;;;0.60;0.47;;;;;;;17.67;63.92;99080.47;6153944;23;20151;-86
2022/09/21 18:01:14;;;;;;;2.93;0.80;;;;;;;17.60;64.59;99081.94;6155109;23;20153;-86
2022/09/21 18:03:42;;;;;;;3.80;0.67;;;;;;;17.56;64.98;99076.06;6154696;23;20573;-86
2022/09/21 18:06:09;;;;;;;4.63;1.10;;;;;;;17.51;64.99;99064.94;6153939;23;20175;-87
2022/09/21 18:08:37;;;;;;;2.37;1.00;;;;;;;17.49;65.07;99080.16;6156218;23;20158;-86
2022/09/21 18:11:11;;;;;;;2.70;0.60;;;;;;;17.53;65.28;99070.19;6157189;23;20178;-87
2022/09/21 18:13:55;;;;;;;1.57;0.70;;;;;;;17.54;65.34;99074.50;6157174;23;20204;-87
2022/09/21 18:16:39;;;;;;;1.70;0.57;;;;;;;17.45;66.11;99068.09;6156543;23;20229;-87
2022/09/21 18:19:46;;;;;;;1.30;0.63;;;;;;;17.35;65.59;99069.00;6155138;23;20170;-86
2022/09/21 18:22:40;;;;;;;1.67;0.80;;;;;;;17.31;66.40;99079.00;6121785;23;20162;-86
2022/09/21 18:25:30;;;;;;;2.10;1.23;;;;;;;17.37;66.75;99070.56;6156539;23;20201;-86
2022/09/21 18:27:57;;;;;;;2.97;0.97;;;;;;;17.41;66.24;99071.97;6156931;23;20142;-87
2022/09/21 18:30:25;;;;;;;1.50;0.60;;;;;;;17.36;65.89;99074.16;6155643;23;20205;-87
2022/09/21 18:33:20;;;;;;;1.20;0.70;;;;;;;17.32;66.28;99070.06;6156215;23;20155;-87
2022/09/21 18:36:14;;;;;;;1.63;0.70;;;;;;;17.31;66.35;99071.03;6157028;23;20162;-86
2022/09/21 18:38:46;;;;;;;3.60;1.50;;;;;;;17.39;65.82;99063.31;6156652;23;20138;-86
2022/09/21 18:41:32;;;;;;;3.17;1.50;;;;;;;17.48;65.12;99059.91;6156884;23;20146;-87
2022/09/21 18:44:24;;;;;;;1.57;0.90;;;;;;;17.42;65.41;99060.41;6156833;23;20143;-87
2022/09/21 18:47:19;;;;;;;3.90;1.23;;;;;;;17.42;65.85;99056.94;6156206;23;20142;-87
2022/09/21 18:50:01;;;;;;;1.83;0.63;;;;;;;17.49;65.69;99058.94;6154190;23;20282;-87
2022/09/21 18:53:10;;;;;;;3.37;1.00;;;;;;;17.47;65.26;99058.22;6157012;23;20218;-87
2022/09/21 18:55:36;;;;;;;0.80;0.50;;;;;;;17.47;65.15;99060.03;6110981;23;20619;-87
2022/09/21 18:58:02;;;;;;;2.67;0.47;;;;;;;17.45;64.35;99052.19;6156546;23;20582;-87
2022/09/21 19:00:33;;;;;;;1.10;0.60;;;;;;;17.54;64.30;99066.53;6156774;23;20630;-87
2022/09/21 19:03:10;;;;;;;0.70;0.37;;;;;;;17.58;64.40;99058.19;6156500;23;20149;-87
2022/09/21 19:05:40;;;;;;;4.97;0.57;;;;;;;17.56;64.71;99065.44;6156423;23;20193;-87
2022/09/21 19:08:10;;;;;;;3.50;0.43;;;;;;;17.58;64.60;99063.50;6155190;23;20189;-88
2022/09/21 19:10:42;;;;;;;0.80;0.50;;;;;;;17.60;64.18;99066.03;6155948;23;20148;-86
2022/09/21 19:13:31;;;;;;;3.53;1.07;;;;;;;17.61;64.26;99065.91;6156529;23;20555;-87
2022/09/21 19:15:59;;;;;;;1.53;0.60;;;;;;;17.43;64.64;99059.44;6155227;23;20486;-87
2022/09/21 19:18:42;;;;;;;1.47;0.70;;;;;;;17.34;64.63;99059.34;6155651;23;20221;-88
2022/09/21 19:21:39;;;;;;;1.03;0.63;;;;;;;17.26;65.60;99067.94;6156226;23;20161;-87
2022/09/21 19:24:24;;;;;;;0.80;0.50;;;;;;;17.25;65.71;99065.38;6155882;23;20192;-87
2022/09/21 19:26:55;;;;;;;2.00;0.90;;;;;;;17.24;66.10;99064.56;6154991;23;20170;-86
2022/09/21 19:29:27;;;;;;;0.93;0.50;;;;;;;17.25;66.06;99066.22;6155449;23;20154;-87
2022/09/21 19:31:52;;;;;;;2.37;0.83;;;;;;;17.27;65.67;99068.78;6155923;23;20232;-87
2022/09/21 19:34:19;;;;;;;6.33;0.93;;;;;;;17.31;65.54;99060.44;6156425;23;20154;-88
2022/09/21 19:36:48;;;;;;;1.30;0.63;;;;;;;17.30;65.66;99056.09;6156256;23;20154;-87
2022/09/21 19:39:15;;;;;;;0.87;0.50;;;;;;;17.18;66.41;99054.47;6155559;23;20177;-87
2022/09/21 19:42:15;;;;;;;1.80;0.90;;;;;;;17.14;67.13;99059.16;6156110;23;20181;-87
2022/09/21 19:44:47;;;;;;;4.53;0.80;;;;;;;17.15;67.08;99052.91;6154929;23;20474;-87
2022/09/21 19:47:29;;;;;;;0.60;0.50;;;;;;;17.12;66.75;99052.28;6155657;23;20139;-87
2022/09/21 19:50:10;;;;;;;1.17;0.50;;;;;;;17.14;66.59;99053.00;6155990;23;20248;-87
2022/09/21 19:52:36;;;;;;;1.40;0.70;;;;;;;17.18;66.00;99054.47;6156172;23;20141;-87
2022/09/21 20:00:31;;;;;;;0.93;0.50;;;;;;;17.09;65.61;99058.69;6155912;23;20177;-88
2022/09/21 20:03:07;;;;;;;1.13;0.60;;;;;;;16.97;65.96;99056.19;6155336;23;20245;-88
2022/09/21 20:06:03;;;;;;;1.27;0.57;;;;;;;17.05;65.96;99061.72;6155944;23;20170;-88
2022/09/21 20:08:49;;;;;;;0.83;0.50;;;;;;;16.96;66.18;99065.91;6155008;23;20153;-87
2022/09/21 20:11:33;;;;;;;0.97;0.60;;;;;;;16.87;66.22;99066.66;6156240;23;20136;-88
2022/09/21 20:14:17;;;;;;;1.10;0.60;;;;;;;16.80;66.27;99073.41;6155914;23;20169;-88
2022/09/21 20:16:58;;;;;;;1.70;0.90;;;;;;;16.73;65.98;99076.66;6155304;23;20149;-88
2022/09/21 20:20:05;;;;;;;1.10;0.63;;;;;;;16.74;66.02;99081.00;6155659;23;20188;-88
2022/09/21 20:22:35;;;;;;;1.13;0.80;;;;;;;16.69;65.72;99077.88;6155913;23;20151;-88
2022/09/21 20:25:19;;;;;;;1.73;0.80;;;;;;;16.68;65.87;99076.16;6155252;23;20175;-88
2022/09/21 20:27:55;;;;;;;1.93;0.67;;;;;;;16.65;65.64;99081.69;6155997;23;20526;-88
2022/09/21 20:30:24;;;;;;;3.67;0.60;;;;;;;16.61;65.64;99080.25;6155675;23;20149;-88
2022/09/21 20:33:20;;;;;;;1.60;0.60;;;;;;;16.57;65.67;99072.56;6154245;23;20201;-88
2022/09/21 20:35:46;;;;;;;6.17;1.00;;;;;;;16.59;65.25;99081.22;6154514;23;20582;-89
2022/09/21 20:38:13;;;;;;;4.57;0.87;;;;;;;16.63;64.79;99078.34;6155606;23;20232;-89
2022/09/21 20:40:40;;;;;;;1.70;0.60;;;;;;;16.62;64.13;99076.63;6154014;23;20174;-88
2022/09/21 20:43:11;;;;;;;0.83;0.50;;;;;;;16.65;63.97;99079.91;6154955;23;20228;-88
2022/09/21 20:45:49;;;;;;;0.80;0.40;;;;;;;16.60;63.37;99082.06;6156097;23;20133;-87
2022/09/21 20:48:14;;;;;;;7.43;0.60;;;;;;;16.59;63.28;99078.56;6155097;23;20220;-88
2022/09/21 20:50:49;;;;;;;1.20;0.63;;;;;;;16.64;63.17;99074.72;6154227;23;20494;-88
2022/09/21 20:53:18;;;;;;;2.50;0.70;;;;;;;16.53;63.59;99081.69;6155825;23;20154;-88
2022/09/21 20:55:52;;;;;;;1.10;0.60;;;;;;;16.40;64.33;99086.19;6154040;23;20153;-88
2022/09/21 20:58:20;;;;;;;0.80;0.50;;;;;;;16.35;64.90;99085.72;6155474;23;20160;-89
2022/09/21 21:00:46;;;;;;;1.70;0.47;;;;;;;16.25;64.93;99084.75;6155269;23;20179;-89
2022/09/21 21:03:11;;;;;;;1.27;0.50;;;;;;;16.20;65.09;99086.91;6153936;23;20579;-89
2022/09/21 21:05:39;;;;;;;1.20;0.70;;;;;;;16.06;65.71;99092.41;6155512;23;20168;-88
2022/09/21 21:08:08;;;;;;;6.73;0.70;;;;;;;15.86;66.81;99093.88;6155363;23;20210;-88
2022/09/21 21:10:36;;;;;;;2.97;0.60;;;;;;;15.64;68.47;99085.03;6154274;23;20484;-88
2022/09/21 21:13:03;;;;;;;1.03;0.47;;;;;;;15.75;68.15;99091.19;6153715;23;20181;-88
2022/09/21 21:15:30;;;;;;;1.67;0.50;;;;;;;15.89;67.39;99096.31;6152783;23;20205;-89
2022/09/21 21:17:56;;;;;;;1.87;0.40;;;;;;;15.99;67.02;99097.31;6153824;23;20159;-88
2022/09/21 21:20:21;;;;;;;0.80;0.40;;;;;;;16.04;66.47;99090.84;6153504;23;20178;-88
2022/09/21 21:22:53;;;;;;;1.57;0.50;;;;;;;16.04;65.84;99085.56;6155322;23;20165;-89
2022/09/21 21:25:19;;;;;;;0.97;0.47;;;;;;;16.02;66.09;99087.44;6154952;23;20160;-89
2022/09/21 21:27:44;;;;;;;2.10;0.70;;;;;;;16.03;65.94;99087.34;6153704;23;20563;-88
2022/09/21 21:30:10;;;;;;;1.73;0.80;;;;;;;16.06;65.73;99089.75;6155207;23;20167;-89
2022/09/21 21:32:36;;;;;;;1.30;0.83;;;;;;;16.05;65.07;99093.34;6155064;23;20195;-88
2022/09/21 21:35:02;;;;;;;0.87;0.50;;;;;;;16.08;64.65;99092.28;6155003;23;20152;-89
2022/09/21 21:37:28;;;;;;;0.67;0.40;;;;;;;16.10;64.36;99091.19;6154254;23;20509;-89
2022/09/21 21:39:55;;;;;;;0.50;0.40;;;;;;;16.08;64.50;99095.78;6154661;23;20175;-88
2022/09/21 21:42:24;;;;;;;0.30;0.27;;;;;;;16.09;64.00;99096.63;6155089;23;20237;-88
2022/09/21 21:44:50;;;;;;;0.43;0.33;;;;;;;16.07;63.44;99093.22;6156145;23;20175;-88
2022/09/21 21:47:16;;;;;;;0.73;0.40;;;;;;;16.01;63.56;99097.16;6153570;23;20152;-88
2022/09/21 21:49:44;;;;;;;0.63;0.40;;;;;;;15.88;63.82;99104.34;6154909;23;20151;-88
2022/09/21 21:52:17;;;;;;;0.80;0.60;;;;;;;15.78;64.45;99104.19;6155509;23;20170;-89
2022/09/21 21:54:46;;;;;;;0.67;0.40;;;;;;;15.72;64.88;99102.00;6156011;23;20230;-88
2022/09/21 21:57:13;;;;;;;1.50;0.60;;;;;;;15.57;65.41;99102.28;6156074;23;20230;-88
2022/09/21 21:59:45;;;;;;;1.27;0.60;;;;;;;15.58;65.81;99096.91;6153839;23;20174;-88
2022/09/21 22:02:11;;;;;;;3.63;0.40;;;;;;;15.57;66.29;99102.28;6154714;23;20202;-88
2022/09/21 22:04:40;;;;;;;0.60;0.50;;;;;;;15.61;66.12;99094.03;6154163;23;20607;-89
2022/09/21 22:07:08;;;;;;;1.27;0.50;;;;;;;15.61;66.10;99091.41;6155390;23;20211;-88
2022/09/21 22:09:35;;;;;;;1.00;0.50;;;;;;;15.70;66.09;99089.84;6155748;23;20603;-89
2022/09/21 22:12:02;;;;;;;0.60;0.40;;;;;;;15.69;65.93;99089.03;6155421;23;20185;-89
2022/09/21 22:14:29;;;;;;;7.10;0.67;;;;;;;15.67;65.67;99082.19;6154188;23;20595;-89
2022/09/21 22:16:59;;;;;;;0.97;0.60;;;;;;;15.69;65.59;99089.03;6154053;23;20189;-89
2022/09/21 22:19:27;;;;;;;1.53;0.67;;;;;;;15.73;65.31;99087.84;6155214;23;20202;-89
2022/09/21 22:21:54;;;;;;;1.03;0.50;;;;;;;15.70;64.64;99089.84;6155562;23;20221;-89
2022/09/21 22:24:21;;;;;;;1.57;0.70;;;;;;;15.45;62.78;99095.22;6153972;23;20151;-87
2022/09/21 22:26:48;;;;;;;1.57;0.60;;;;;;;15.43;63.29;99094.50;6155405;23;20158;-89
2022/09/21 22:29:15;;;;;;;1.00;0.70;;;;;;;15.51;63.04;99097.47;6178771;23;20151;-89
2022/09/21 22:31:45;;;;;;;0.93;0.60;;;;;;;15.44;62.04;99096.16;6155836;23;20147;-88
2022/09/21 22:34:15;;;;;;;1.10;0.57;;;;;;;15.43;62.80;99089.22;6155202;23;20209;-90
2022/09/21 22:36:42;;;;;;;1.13;0.57;;;;;;;15.55;62.81;99086.56;6154003;23;20242;-88
2022/09/21 22:39:09;;;;;;;1.27;0.53;;;;;;;15.57;62.71;99086.44;6156061;23;20193;-88
2022/09/21 22:41:40;;;;;;;0.63;0.43;;;;;;;15.54;63.53;99084.03;6155714;23;20162;-89
2022/09/21 22:44:08;;;;;;;0.93;0.50;;;;;;;15.58;63.42;99085.47;6155827;23;20132;-89
2022/09/21 22:46:36;;;;;;;6.70;0.90;;;;;;;15.61;63.45;99085.25;6155422;23;20186;-89
2022/09/21 22:49:04;;;;;;;3.03;1.53;;;;;;;15.56;62.80;99080.31;6155694;23;20170;-88
2022/09/21 22:51:35;;;;;;;2.63;0.80;;;;;;;15.48;63.80;99085.31;6155493;23;20154;-89
2022/09/21 22:54:02;;;;;;;3.53;0.83;;;;;;;15.51;63.60;99081.63;6155293;23;20178;-88
2022/09/21 22:56:33;;;;;;;1.10;0.70;;;;;;;15.50;63.61;99085.19;6156536;23;20161;-88
2022/09/21 22:59:03;;;;;;;1.70;0.70;;;;;;;15.51;63.32;99071.91;6155074;23;20245;-89
2022/09/21 23:01:37;;;;;;;2.20;1.07;;;;;;;15.56;62.98;99076.84;6156303;23;20179;-88
2022/09/21 23:04:08;;;;;;;1.87;1.07;;;;;;;15.50;63.50;99074.63;6156970;23;20141;-89
2022/09/21 23:06:37;;;;;;;2.90;1.27;;;;;;;15.55;63.08;99072.50;6155514;23;20199;-89
2022/09/21 23:09:12;;;;;;;3.20;0.90;;;;;;;15.55;63.24;99075.97;6156230;23;20162;-89
2022/09/21 23:11:52;;;;;;;2.13;0.83;;;;;;;15.50;63.37;99079.91;6156026;23;20139;-89
2022/09/21 23:14:19;;;;;;;1.77;0.80;;;;;;;15.55;63.22;99073.34;6155660;23;20155;-90
2022/09/21 23:16:46;;;;;;;4.07;1.27;;;;;;;15.45;62.63;99060.88;6155075;23;20545;-89
2022/09/21 23:19:17;;;;;;;2.43;1.23;;;;;;;15.32;63.30;99080.28;6155472;23;20190;-90
2022/09/21 23:22:05;;;;;;;1.93;0.93;;;;;;;15.24;64.33;99074.72;6156798;23;20139;-89
2022/09/21 23:24:32;;;;;;;1.83;1.07;;;;;;;15.21;63.98;99069.66;6156963;23;20152;-89
2022/09/21 23:26:58;;;;;;;2.00;1.00;;;;;;;15.26;64.25;99072.81;6156492;23;20155;-90
2022/09/21 23:29:25;;;;;;;2.07;1.20;;;;;;;15.24;63.97;99068.59;6155082;23;20151;-89
2022/09/21 23:31:52;;;;;;;1.67;0.90;;;;;;;15.21;64.55;99063.53;6155327;23;20194;-89
2022/09/21 23:34:20;;;;;;;2.27;0.83;;;;;;;15.05;64.50;99069.06;6155393;23;20169;-90
2022/09/21 23:36:48;;;;;;;2.17;0.80;;;;;;;15.03;63.90;99063.06;6156658;23;20239;-89
2022/09/21 23:39:18;;;;;;;1.23;0.80;;;;;;;14.88;63.92;99064.16;6152816;23;20189;-89
2022/09/21 23:41:45;;;;;;;1.93;0.80;;;;;;;14.96;63.62;99064.47;6155450;23;20583;-89
2022/09/21 23:44:41;;;;;;;1.97;0.77;;;;;;;14.91;64.23;99066.56;6156702;23;20213;-90
2022/09/21 23:47:11;;;;;;;3.33;1.27;;;;;;;14.65;64.31;99068.41;6155322;23;20575;-89
2022/09/21 23:49:38;;;;;;;2.20;1.10;;;;;;;14.63;64.42;99066.81;6154521;23;20186;-89
2022/09/21 23:52:11;;;;;;;3.27;0.87;;;;;;;14.60;65.89;99069.69;6155339;23;20179;-89
2022/09/21 23:54:38;;;;;;;2.57;1.10;;;;;;;14.58;65.29;99064.53;6155080;23;20520;-89
2022/09/21 23:57:05;;;;;;;1.67;1.10;;;;;;;14.59;65.47;99065.38;6155882;23;20582;-90
2022/09/21 23:59:34;;;;;;;1.77;0.90;;;;;;;14.49;65.68;99070.41;6154435;23;20178;-90
